Castlegar/West Kootenay Regional Airport
CYCG : now visible

Airfield :











YOU CAN JOIN US ON...

 
LOGIN :

Register | Disclaimer

   EN    FR    IT 

 









Legend :    VFR   Marginal VFR   IFR   Intensive IFR   Very Intensive IFR
Visi :
Ceiling :
>= 8 km
>= 3000ft
5 to 8 km
1000 to 3000 ft
1500m to 5 km
500 to 1000 ft
800 to 1500m
200 to 500 ft
< 800m
< 200 ft
Symbols :   Thunderstorms  Fog  Heavy snow  Heavy precipitations  Wind > 20 kt






- Airport Elevation : 1624 ft
- IATA code : YCG


CYCG - Castlegar/West Kootenay Regional

CURRENT METAR :
  • 111900Z 00000KT 15SM OVC220 02/M01 A3051 RMK CI8 SLP352

EXPIRED METARs :
  • 111800Z 00000KT 15SM FEW005 BKN200 BKN260 M00/M01 A3052 RMK SF1CC4CI2 SLP357
  • 111727Z 00000KT 15SM FEW002 FEW020 SCT200 BKN250 M01/M01 A3053 RMK CF1CF1CC4CI3 CF TR CF TR SLP359
  • 111700Z 00000KT 15SM PRFG FEW001 SCT210 BKN240 M01/M01 A3054 RMK CF1CC4CI3 CF TR FG BANK OVR APCH RWY 33 AND RIVER SW SLP362

TAF TAF CYCG
Valid from the 11 at 19:00 until the 12 at 01:00 UTC


111838Z 1119/1201 VRB03KT P6SM FEW080 BKN200 RMK NXT FCST WILL BE ISSUED AT 121545Z



MET'MAP, your aeronautical weather chart ! - Copyright ORBIFLY December 2007 - Disclaimer

ORBIFLY MET'MAP TEAM :

Programming & Development : Alexandra Zaïnal
Concept & Development : Baudouin d'Aumeries
Co-Development & Prog : Marc-Olivier Méhu
Technical & hardware support : Manuel Goepfert

Contact : metmap@orbifly.com




SOURCES & CREDITS :

   NOAA       Earth
Advisory